Time;durP1;ratioP1;P1;durP2;ratioP2;P2;SDS_P1;SDS_P2;PMS_P1;PMS_P2;Temp;Humidity;BMP_temperature;BMP_pressure;BME280_temperature;BME280_humidity;BME280_pressure;Samples;Min_cycle;Max_cycle;Signal;HPM_P1;HPM_P2
2021/09/29 00:00:57;;;;;;;14.85;10.80;;;;;;;;;;5093724;28;20123;-64
2021/09/29 00:03:43;;;;;;;13.75;10.57;;;;;;;;;;5093401;28;20123;-64
2021/09/29 00:06:28;;;;;;;19.80;10.70;;;;;;;;;;5093576;28;20048;-65
2021/09/29 00:09:13;;;;;;;19.42;11.32;;;;;;;;;;5093666;28;20127;-64
2021/09/29 00:11:59;;;;;;;19.65;11.98;;;;;;;;;;5093437;28;20060;-65
2021/09/29 00:14:44;;;;;;;20.73;12.70;;;;;;;;;;5093447;28;20498;-64
2021/09/29 00:17:29;;;;;;;17.80;11.40;;;;;;;;;;5093598;28;20052;-65
2021/09/29 00:20:15;;;;;;;15.18;12.70;;;;;;;;;;5093465;28;20044;-64
2021/09/29 00:23:00;;;;;;;19.70;13.45;;;;;;;;;;5093318;28;20048;-65
2021/09/29 00:25:46;;;;;;;19.15;12.88;;;;;;;;;;5093143;28;20110;-63
2021/09/29 00:28:31;;;;;;;20.80;12.07;;;;;;;;;;5093085;28;20060;-63
2021/09/29 00:31:26;;;;;;;16.95;13.13;;;;;;;;;;5092847;28;20413;-63
2021/09/29 00:34:13;;;;;;;18.25;12.05;;;;;;;;;;5092835;28;20138;-63
2021/09/29 00:36:58;;;;;;;25.40;12.82;;;;;;;;;;5092949;28;20048;-63
2021/09/29 00:39:43;;;;;;;22.52;12.63;;;;;;;;;;5092827;28;20052;-63
2021/09/29 00:42:28;;;;;;;17.85;13.13;;;;;;;;;;5092829;28;20055;-63
2021/09/29 00:45:14;;;;;;;20.13;12.57;;;;;;;;;;5092643;28;20044;-63
2021/09/29 00:47:59;;;;;;;17.35;11.55;;;;;;;;;;5092706;28;20052;-63
2021/09/29 00:50:44;;;;;;;16.13;11.70;;;;;;;;;;5092914;28;20056;-63
2021/09/29 00:53:29;;;;;;;16.48;11.02;;;;;;;;;;5092429;28;20052;-63
2021/09/29 00:56:15;;;;;;;19.30;11.45;;;;;;;;;;5092647;28;20055;-63
2021/09/29 00:59:00;;;;;;;17.63;10.60;;;;;;;;;;5092243;28;20048;-63
2021/09/29 01:01:46;;;;;;;16.00;10.48;;;;;;;;;;5092656;28;20079;-63
2021/09/29 01:04:31;;;;;;;19.05;10.40;;;;;;;;;;5077080;28;20052;-63
2021/09/29 01:07:16;;;;;;;17.98;9.73;;;;;;;;;;5092630;28;20155;-63
2021/09/29 01:10:04;;;;;;;10.65;8.30;;;;;;;;;;5092244;28;20086;-63
2021/09/29 01:12:51;;;;;;;14.82;7.55;;;;;;;;;;5092391;28;20437;-63
2021/09/29 01:15:44;;;;;;;12.50;8.63;;;;;;;;;;5076864;28;20565;-63
2021/09/29 01:18:30;;;;;;;10.43;8.23;;;;;;;;;;5092113;28;20052;-63
2021/09/29 01:21:15;;;;;;;13.93;8.30;;;;;;;;;;5077108;28;20058;-63
2021/09/29 01:24:33;;;;;;;12.77;7.20;;;;;;;;;;5076939;28;20122;-63
2021/09/29 01:27:18;;;;;;;14.02;7.47;;;;;;;;;;5058279;28;20051;-63
2021/09/29 01:30:04;;;;;;;17.83;7.90;;;;;;;;;;5076731;28;20086;-63
2021/09/29 01:32:49;;;;;;;13.43;7.10;;;;;;;;;;5092299;28;20134;-63
2021/09/29 01:35:34;;;;;;;15.70;7.03;;;;;;;;;;5091805;28;20040;-63
2021/09/29 01:38:19;;;;;;;15.77;7.05;;;;;;;;;;5076673;28;20048;-63
2021/09/29 01:41:04;;;;;;;15.30;7.30;;;;;;;;;;5077095;28;20086;-63
2021/09/29 01:43:49;;;;;;;10.18;6.63;;;;;;;;;;5095221;28;20407;-63
2021/09/29 01:46:35;;;;;;;16.80;7.05;;;;;;;;;;5096137;28;20052;-63
2021/09/29 01:49:23;;;;;;;15.13;7.68;;;;;;;;;;5095983;28;20087;-63
2021/09/29 01:52:09;;;;;;;11.07;7.28;;;;;;;;;;5081003;28;20056;-63
2021/09/29 01:54:54;;;;;;;9.77;6.57;;;;;;;;;;5095637;28;20581;-63
2021/09/29 01:57:39;;;;;;;9.63;6.80;;;;;;;;;;5080967;28;20429;-63
2021/09/29 02:00:24;;;;;;;12.43;7.03;;;;;;;;;;5080711;28;20048;-63
2021/09/29 02:03:09;;;;;;;14.50;7.20;;;;;;;;;;5095872;28;20501;-65
2021/09/29 02:05:55;;;;;;;12.88;7.45;;;;;;;;;;5096219;28;20083;-64
2021/09/29 02:08:40;;;;;;;18.83;7.68;;;;;;;;;;5080910;28;20127;-63
2021/09/29 02:11:25;;;;;;;14.35;8.38;;;;;;;;;;5095941;28;20048;-64
2021/09/29 02:14:10;;;;;;;15.77;8.73;;;;;;;;;;5095728;28;20056;-64
2021/09/29 02:16:55;;;;;;;15.30;9.00;;;;;;;;;;5095309;28;20056;-64
2021/09/29 02:19:41;;;;;;;15.60;8.55;;;;;;;;;;5094792;28;20052;-63
2021/09/29 02:22:26;;;;;;;13.52;9.43;;;;;;;;;;5095681;28;20056;-63
2021/09/29 02:25:12;;;;;;;14.32;8.25;;;;;;;;;;5095262;28;20094;-63
2021/09/29 02:27:58;;;;;;;11.40;7.35;;;;;;;;;;5095433;28;20387;-63
2021/09/29 02:30:43;;;;;;;13.85;7.43;;;;;;;;;;5095262;28;20052;-63
2021/09/29 02:33:28;;;;;;;10.45;6.47;;;;;;;;;;5095180;28;20048;-63
2021/09/29 02:36:14;;;;;;;11.63;6.45;;;;;;;;;;5095208;28;20052;-63
2021/09/29 02:38:59;;;;;;;15.05;6.68;;;;;;;;;;5095051;28;20048;-63
2021/09/29 02:41:44;;;;;;;18.83;7.57;;;;;;;;;;5095188;28;20485;-63
2021/09/29 02:44:30;;;;;;;8.55;6.00;;;;;;;;;;5094941;28;20048;-63
2021/09/29 02:47:15;;;;;;;12.27;6.30;;;;;;;;;;5094930;28;20056;-63
2021/09/29 02:50:00;;;;;;;13.85;7.20;;;;;;;;;;5094713;28;20052;-63
2021/09/29 02:52:46;;;;;;;13.85;6.90;;;;;;;;;;5094875;28;20047;-63
2021/09/29 02:55:31;;;;;;;15.65;6.90;;;;;;;;;;5094462;28;20051;-63
2021/09/29 02:58:17;;;;;;;14.68;7.45;;;;;;;;;;5095046;28;20048;-63
2021/09/29 03:01:03;;;;;;;12.55;7.25;;;;;;;;;;5094615;28;20506;-63
2021/09/29 03:03:47;;;;;;;15.57;7.43;;;;;;;;;;5094397;28;20122;-62
2021/09/29 03:06:33;;;;;;;14.00;6.80;;;;;;;;;;5094672;28;20048;-63
2021/09/29 03:09:18;;;;;;;13.98;6.85;;;;;;;;;;5079525;28;20048;-62
2021/09/29 03:12:03;;;;;;;10.98;6.45;;;;;;;;;;5094370;28;20060;-63
2021/09/29 03:14:48;;;;;;;13.07;6.38;;;;;;;;;;5094439;28;20127;-63
2021/09/29 03:17:33;;;;;;;13.10;7.40;;;;;;;;;;5094338;28;20056;-63
2021/09/29 03:20:19;;;;;;;10.73;6.53;;;;;;;;;;5094246;28;20048;-62
2021/09/29 03:23:04;;;;;;;10.75;7.00;;;;;;;;;;5094571;28;20083;-62
2021/09/29 03:25:50;;;;;;;14.20;7.05;;;;;;;;;;5094145;28;20421;-62
2021/09/29 03:28:35;;;;;;;16.45;7.35;;;;;;;;;;5094248;28;20047;-62
2021/09/29 03:31:20;;;;;;;13.15;6.63;;;;;;;;;;5094217;28;20501;-62
2021/09/29 03:34:06;;;;;;;14.95;6.85;;;;;;;;;;5094064;28;20126;-63
2021/09/29 03:36:51;;;;;;;17.15;6.85;;;;;;;;;;5094125;28;20498;-63
2021/09/29 03:39:36;;;;;;;15.60;7.93;;;;;;;;;;5094151;28;20052;-63
2021/09/29 03:42:21;;;;;;;13.40;7.25;;;;;;;;;;5094032;28;20518;-63
2021/09/29 03:45:07;;;;;;;12.13;7.25;;;;;;;;;;5093773;28;20127;-63
2021/09/29 03:47:52;;;;;;;12.68;7.18;;;;;;;;;;5094112;28;20059;-63
2021/09/29 03:50:38;;;;;;;13.65;7.68;;;;;;;;;;5093919;28;20048;-63
2021/09/29 03:53:23;;;;;;;12.55;7.25;;;;;;;;;;5093899;28;20127;-63
2021/09/29 03:56:08;;;;;;;11.30;8.00;;;;;;;;;;5093981;28;20056;-63
2021/09/29 03:58:53;;;;;;;14.60;7.93;;;;;;;;;;5093695;28;20052;-63
2021/09/29 04:01:39;;;;;;;17.63;7.80;;;;;;;;;;5093673;28;20052;-63
2021/09/29 04:04:24;;;;;;;12.15;7.80;;;;;;;;;;5093662;28;20040;-63
2021/09/29 04:07:10;;;;;;;14.32;7.63;;;;;;;;;;5093533;28;20048;-63
2021/09/29 04:09:55;;;;;;;10.10;7.63;;;;;;;;;;5093359;28;20127;-63
2021/09/29 04:12:43;;;;;;;13.30;7.97;;;;;;;;;;5093400;28;20071;-63
2021/09/29 04:15:28;;;;;;;18.23;8.50;;;;;;;;;;5093268;28;20051;-63
2021/09/29 04:18:13;;;;;;;13.25;8.32;;;;;;;;;;5093225;28;20055;-63
2021/09/29 04:20:58;;;;;;;17.88;8.05;;;;;;;;;;5093151;28;20048;-63
2021/09/29 04:23:44;;;;;;;15.20;8.52;;;;;;;;;;5093139;28;20115;-63
2021/09/29 04:26:29;;;;;;;13.93;8.52;;;;;;;;;;5093222;28;20052;-63
2021/09/29 04:29:15;;;;;;;15.40;8.10;;;;;;;;;;5093018;28;20056;-63
2021/09/29 04:32:00;;;;;;;19.15;9.82;;;;;;;;;;5093292;28;20119;-61
2021/09/29 04:34:45;;;;;;;12.20;8.27;;;;;;;;;;5092820;28;20063;-62
2021/09/29 04:37:30;;;;;;;14.35;9.77;;;;;;;;;;5092905;28;20051;-61
2021/09/29 04:40:16;;;;;;;16.27;9.55;;;;;;;;;;5093036;28;20048;-62
2021/09/29 04:43:01;;;;;;;14.45;10.18;;;;;;;;;;5093034;28;20060;-62
2021/09/29 04:45:47;;;;;;;19.40;10.77;;;;;;;;;;5092565;28;20056;-63
2021/09/29 04:48:32;;;;;;;15.43;9.63;;;;;;;;;;5092813;28;20079;-62
2021/09/29 04:51:17;;;;;;;18.35;10.57;;;;;;;;;;5092653;28;20519;-63
2021/09/29 04:54:02;;;;;;;14.35;9.40;;;;;;;;;;5092414;28;20052;-61
2021/09/29 04:56:48;;;;;;;14.43;10.45;;;;;;;;;;5092787;28;20040;-63
2021/09/29 04:59:33;;;;;;;15.82;10.50;;;;;;;;;;5092595;28;20052;-63
2021/09/29 05:02:18;;;;;;;17.00;10.20;;;;;;;;;;5084981;28;20087;-63
2021/09/29 05:05:04;;;;;;;18.90;10.05;;;;;;;;;;5067848;28;20052;-63
2021/09/29 05:07:49;;;;;;;11.90;9.55;;;;;;;;;;5083009;28;20841;-63
2021/09/29 05:10:41;;;;;;;17.80;10.82;;;;;;;;;;5080246;28;20048;-63
2021/09/29 05:13:28;;;;;;;18.17;10.73;;;;;;;;;;5082674;28;20044;-63
2021/09/29 05:16:13;;;;;;;18.90;9.60;;;;;;;;;;5080627;28;20546;-63
2021/09/29 05:18:58;;;;;;;17.23;9.68;;;;;;;;;;5080854;28;20044;-63
2021/09/29 05:21:43;;;;;;;17.80;10.75;;;;;;;;;;5067232;28;20415;-63
2021/09/29 05:24:28;;;;;;;15.10;9.93;;;;;;;;;;5080835;28;20505;-63
2021/09/29 05:27:14;;;;;;;17.00;10.65;;;;;;;;;;5083257;28;20139;-63
2021/09/29 05:29:59;;;;;;;15.35;9.75;;;;;;;;;;5088880;28;20056;-63
2021/09/29 05:32:44;;;;;;;23.10;11.43;;;;;;;;;;5091435;28;20118;-63
2021/09/29 05:35:30;;;;;;;16.42;9.88;;;;;;;;;;5082733;28;20052;-63
2021/09/29 05:38:15;;;;;;;16.15;9.70;;;;;;;;;;5071944;28;20131;-63
2021/09/29 05:41:01;;;;;;;17.58;9.63;;;;;;;;;;5074705;28;20048;-63
2021/09/29 05:43:46;;;;;;;16.90;9.73;;;;;;;;;;5091823;28;20044;-63
2021/09/29 05:46:31;;;;;;;16.70;9.90;;;;;;;;;;5091964;28;20398;-62
2021/09/29 05:49:16;;;;;;;19.05;9.90;;;;;;;;;;5137671;22;20047;-60
2021/09/29 05:52:02;;;;;;;15.90;9.30;;;;;;;;;;5112127;28;20483;-59
2021/09/29 05:54:47;;;;;;;16.83;9.43;;;;;;;;;;5111766;28;20047;-61
2021/09/29 05:57:32;;;;;;;17.15;9.85;;;;;;;;;;5112301;28;20051;-60
2021/09/29 06:00:18;;;;;;;14.38;9.25;;;;;;;;;;5111839;28;20119;-59
2021/09/29 06:03:03;;;;;;;15.00;9.30;;;;;;;;;;5111906;28;20052;-60
2021/09/29 06:05:49;;;;;;;16.92;9.32;;;;;;;;;;5111994;28;20487;-60
2021/09/29 06:08:34;;;;;;;13.10;8.95;;;;;;;;;;5111887;28;20088;-60
2021/09/29 06:11:19;;;;;;;14.48;7.75;;;;;;;;;;5111594;28;20048;-60
2021/09/29 06:14:06;;;;;;;11.73;8.57;;;;;;;;;;5119267;28;20492;-59
2021/09/29 06:16:59;;;;;;;14.15;9.35;;;;;;;;;;5112089;28;20122;-60
2021/09/29 06:19:44;;;;;;;;;;;;;;;;;;5119561;28;20100;-61
2021/09/29 06:22:29;;;;;;;24.02;9.70;;;;;;;;;;5120566;28;19919;-61
2021/09/29 06:25:14;;;;;;;16.30;9.20;;;;;;;;;;5122228;28;20087;-61
2021/09/29 06:28:00;;;;;;;13.50;8.10;;;;;;;;;;5122724;28;20075;-61
2021/09/29 06:30:45;;;;;;;19.02;8.02;;;;;;;;;;5116015;28;20060;-61
2021/09/29 06:33:30;;;;;;;16.40;7.95;;;;;;;;;;5122930;28;20051;-60
2021/09/29 06:36:16;;;;;;;18.25;7.97;;;;;;;;;;5115682;28;20051;-60
2021/09/29 06:39:01;;;;;;;12.35;7.45;;;;;;;;;;5115713;28;20114;-61
2021/09/29 06:41:47;;;;;;;17.73;8.13;;;;;;;;;;5115739;28;20055;-59
2021/09/29 06:44:33;;;;;;;13.18;7.85;;;;;;;;;;5115269;28;20047;-60
2021/09/29 06:47:18;;;;;;;15.77;7.70;;;;;;;;;;5100460;28;20048;-60
2021/09/29 06:50:03;;;;;;;15.27;7.95;;;;;;;;;;5115323;28;20048;-59
2021/09/29 06:52:49;;;;;;;11.75;7.18;;;;;;;;;;5115355;28;20051;-60
2021/09/29 06:55:34;;;;;;;11.50;7.35;;;;;;;;;;5115299;28;20051;-61
2021/09/29 06:58:20;;;;;;;10.63;6.80;;;;;;;;;;5115318;28;20051;-59
2021/09/29 07:01:05;;;;;;;13.38;6.93;;;;;;;;;;5115229;28;20090;-60
2021/09/29 07:03:51;;;;;;;12.80;7.35;;;;;;;;;;5099666;28;20509;-60
2021/09/29 07:06:36;;;;;;;17.33;7.13;;;;;;;;;;5115206;28;20090;-60
2021/09/29 07:09:21;;;;;;;17.05;8.20;;;;;;;;;;5119432;28;20052;-62
2021/09/29 07:12:07;;;;;;;14.55;8.25;;;;;;;;;;5129419;28;20055;-61
2021/09/29 07:14:52;;;;;;;12.00;7.22;;;;;;;;;;5083192;28;20061;-60
2021/09/29 07:17:37;;;;;;;13.77;7.75;;;;;;;;;;5114972;28;20051;-60
2021/09/29 07:20:23;;;;;;;11.20;7.97;;;;;;;;;;5114732;28;20047;-60
2021/09/29 07:23:08;;;;;;;14.98;9.30;;;;;;;;;;5114790;28;20485;-60
2021/09/29 07:25:53;;;;;;;15.90;8.43;;;;;;;;;;5114771;28;20047;-61
2021/09/29 07:28:39;;;;;;;14.23;8.77;;;;;;;;;;5119485;28;20071;-62
2021/09/29 07:31:24;;;;;;;14.88;8.70;;;;;;;;;;5118623;28;20087;-61
2021/09/29 07:34:11;;;;;;;15.05;9.30;;;;;;;;;;5119088;28;20508;-60
2021/09/29 07:36:57;;;;;;;17.35;9.07;;;;;;;;;;5114755;28;20077;-60
2021/09/29 07:39:43;;;;;;;15.00;8.82;;;;;;;;;;5113811;28;20051;-60
2021/09/29 07:42:28;;;;;;;12.27;8.55;;;;;;;;;;5114456;28;20047;-60
2021/09/29 07:45:13;;;;;;;15.38;9.00;;;;;;;;;;5108177;28;20123;-60
2021/09/29 07:47:58;;;;;;;14.40;8.25;;;;;;;;;;5104099;28;20052;-61
2021/09/29 07:50:44;;;;;;;15.95;8.50;;;;;;;;;;5104483;28;20048;-60
2021/09/29 07:53:29;;;;;;;14.50;9.07;;;;;;;;;;5090293;28;20048;-60
2021/09/29 07:56:14;;;;;;;13.55;8.50;;;;;;;;;;5110710;28;20056;-62
2021/09/29 07:59:00;;;;;;;12.80;8.07;;;;;;;;;;5111707;28;20048;-61
2021/09/29 08:01:46;;;;;;;13.82;8.68;;;;;;;;;;5109864;28;20056;-61
2021/09/29 08:04:31;;;;;;;11.75;9.38;;;;;;;;;;5107799;28;20088;-60
2021/09/29 08:07:16;;;;;;;14.32;8.20;;;;;;;;;;5104904;28;20119;-60
2021/09/29 08:10:02;;;;;;;13.63;8.82;;;;;;;;;;5103799;28;20119;-60
2021/09/29 08:12:47;;;;;;;13.52;8.15;;;;;;;;;;5104194;28;20119;-60
2021/09/29 08:15:32;;;;;;;16.58;9.38;;;;;;;;;;5102359;28;20052;-59
2021/09/29 08:18:18;;;;;;;14.13;8.77;;;;;;;;;;5103076;28;20464;-60
2021/09/29 08:21:08;;;;;;;16.00;9.38;;;;;;;;;;5103985;28;20047;-59
2021/09/29 08:23:55;;;;;;;16.35;9.55;;;;;;;;;;5105057;28;20043;-60
2021/09/29 08:26:54;;;;;;;19.98;9.20;;;;;;;;;;5113502;28;20421;-59
2021/09/29 08:30:31;;;;;;;11.82;7.25;;;;;;;;;;5100190;28;20048;-60
2021/09/29 08:35:33;;;;;;;14.38;8.77;;;;;;;;;;5114562;28;20051;-61
2021/09/29 08:38:56;;;;;;;12.23;8.45;;;;;;;;;;5114551;28;20047;-60
2021/09/29 08:44:40;;;;;;;13.73;8.68;;;;;;;;;;5113007;28;20055;-60
2021/09/29 08:47:30;;;;;;;12.25;9.18;;;;;;;;;;5113538;28;20406;-63
2021/09/29 08:50:44;;;;;;;11.45;8.40;;;;;;;;;;5114518;28;20463;-62
2021/09/29 09:18:05;;;;;;;15.02;10.52;;;;;;;;;;5114200;28;20051;-61
2021/09/29 09:20:55;;;;;;;15.75;12.30;;;;;;;;;;5113913;28;20083;-60
2021/09/29 09:23:41;;;;;;;16.17;11.27;;;;;;;;;;5095640;28;20122;-61
2021/09/29 09:26:26;;;;;;;18.25;11.55;;;;;;;;;;5098102;28;20171;-60
2021/09/29 09:29:12;;;;;;;14.65;10.98;;;;;;;;;;5112218;28;20055;-60
2021/09/29 09:32:07;;;;;;;15.80;11.30;;;;;;;;;;5112676;28;20085;-60
2021/09/29 09:35:02;;;;;;;14.35;10.63;;;;;;;;;;5112388;28;20060;-60
2021/09/29 09:37:54;;;;;;;12.32;10.23;;;;;;;;;;5112389;28;20508;-60
2021/09/29 09:40:40;;;;;;;9.70;8.20;;;;;;;;;;5112224;28;20452;-60
2021/09/29 09:43:26;;;;;;;8.82;7.20;;;;;;;;;;5112287;28;20601;-60
2021/09/29 09:46:15;;;;;;;8.25;6.80;;;;;;;;;;5112354;28;20452;-60
2021/09/29 09:49:01;;;;;;;9.18;7.80;;;;;;;;;;5112227;28;20052;-59
2021/09/29 09:51:47;;;;;;;7.60;6.65;;;;;;;;;;5112330;28;20044;-60
2021/09/29 09:54:39;;;;;;;6.78;6.07;;;;;;;;;;5112300;28;20505;-60
2021/09/29 09:57:24;;;;;;;10.82;6.43;;;;;;;;;;5112327;28;20044;-60
2021/09/29 10:00:10;;;;;;;9.18;6.50;;;;;;;;;;5112151;28;20051;-60
2021/09/29 10:02:55;;;;;;;6.53;5.93;;;;;;;;;;5112549;28;20047;-60
2021/09/29 10:05:42;;;;;;;6.03;5.43;;;;;;;;;;5116172;28;20409;-60
2021/09/29 10:08:29;;;;;;;8.57;6.75;;;;;;;;;;5116267;28;20048;-61
2021/09/29 10:11:24;;;;;;;7.20;6.05;;;;;;;;;;5116418;28;20119;-60
2021/09/29 10:23:25;;;;;;;5.38;4.63;;;;;;;;;;5119565;28;20052;-61
2021/09/29 10:26:25;;;;;;;6.18;4.60;;;;;;;;;;5104936;28;20498;-60
2021/09/29 10:29:12;;;;;;;6.25;4.97;;;;;;;;;;5115833;28;20051;-60
2021/09/29 10:35:11;;;;;;;7.05;4.80;;;;;;;;;;5115560;28;20044;-60
2021/09/29 10:41:23;;;;;;;4.45;3.08;;;;;;;;;;5117587;28;20383;-61
2021/09/29 10:44:21;;;;;;;5.50;3.65;;;;;;;;;;5106914;28;20043;-61
2021/09/29 11:30:03;;;;;;;8.93;7.05;;;;;;;;;;5114720;28;20051;-62
2021/09/29 11:36:25;;;;;;;9.70;8.75;;;;;;;;;;5051501;28;20052;-62
2021/09/29 12:10:18;;;;;;;1.60;0.65;;;;;;;;;;5113943;28;20055;-63
2021/09/29 12:13:07;;;;;;;1.70;0.22;;;;;;;;;;5113941;28;20051;-63
2021/09/29 12:15:52;;;;;;;2.05;0.65;;;;;;;;;;5113725;28;20055;-63
2021/09/29 12:18:38;;;;;;;1.65;0.10;;;;;;;;;;5113942;28;20055;-63
2021/09/29 12:21:47;;;;;;;2.70;0.38;;;;;;;;;;5113590;28;20118;-63
2021/09/29 12:24:36;;;;;;;2.65;0.30;;;;;;;;;;5113584;28;20047;-63
2021/09/29 12:27:25;;;;;;;3.28;0.45;;;;;;;;;;5113202;28;20047;-63
2021/09/29 12:30:17;;;;;;;4.10;0.63;;;;;;;;;;5113493;28;20511;-63
2021/09/29 12:36:04;;;;;;;8.23;0.47;;;;;;;;;;5113515;28;20413;-63
2021/09/29 12:38:51;;;;;;;3.95;0.73;;;;;;;;;;5113244;28;20055;-63
2021/09/29 12:41:45;;;;;;;5.05;0.60;;;;;;;;;;5113298;28;20052;-63
2021/09/29 12:44:30;;;;;;;8.68;0.65;;;;;;;;;;5113112;28;20059;-63
2021/09/29 12:50:12;;;;;;;2.63;0.13;;;;;;;;;;5112924;28;20517;-63
2021/09/29 12:56:11;;;;;;;4.15;0.50;;;;;;;;;;5113241;28;20118;-63
2021/09/29 12:58:57;;;;;;;3.72;0.40;;;;;;;;;;5112930;28;20058;-63
2021/09/29 13:01:42;;;;;;;3.70;0.38;;;;;;;;;;5112740;28;20074;-63
2021/09/29 13:04:27;;;;;;;6.63;0.90;;;;;;;;;;5112833;28;20084;-63
2021/09/29 13:07:13;;;;;;;4.97;0.50;;;;;;;;;;5112952;28;20048;-63
2021/09/29 13:09:59;;;;;;;3.47;0.40;;;;;;;;;;5112661;28;20060;-63
2021/09/29 13:12:45;;;;;;;2.17;0.57;;;;;;;;;;5112922;28;20122;-63
2021/09/29 13:15:30;;;;;;;3.72;0.57;;;;;;;;;;5097564;28;20055;-63
2021/09/29 13:18:26;;;;;;;2.65;0.77;;;;;;;;;;5112662;28;20083;-63
2021/09/29 13:24:15;;;;;;;4.55;0.57;;;;;;;;;;5112443;28;20051;-63
2021/09/29 13:39:09;;;;;;;2.65;0.85;;;;;;;;;;5111575;28;20091;-63
2021/09/29 13:41:54;;;;;;;2.25;0.77;;;;;;;;;;5112282;28;20048;-61
2021/09/29 13:44:39;;;;;;;1.58;0.20;;;;;;;;;;5112170;28;20044;-61
2021/09/29 13:47:25;;;;;;;4.15;0.55;;;;;;;;;;5112306;28;20089;-62
2021/09/29 13:50:12;;;;;;;5.07;0.77;;;;;;;;;;5112355;28;20114;-62
2021/09/29 13:52:59;;;;;;;0.85;0.50;;;;;;;;;;5112144;28;20056;-62
2021/09/29 13:55:46;;;;;;;1.33;0.30;;;;;;;;;;5111970;28;20055;-63
2021/09/29 14:28:52;;;;;;;4.47;0.98;;;;;;;;;;5121481;28;20047;-65
2021/09/29 14:31:45;;;;;;;2.25;0.70;;;;;;;;;;5119845;28;20051;-65
2021/09/29 14:34:31;;;;;;;1.17;0.90;;;;;;;;;;5120123;28;20497;-64
2021/09/29 14:37:16;;;;;;;1.10;0.70;;;;;;;;;;5104420;28;20103;-64
2021/09/29 14:40:01;;;;;;;2.67;0.75;;;;;;;;;;5120584;28;20059;-64
2021/09/29 14:42:47;;;;;;;1.80;1.05;;;;;;;;;;5118015;28;20049;-64
2021/09/29 14:45:32;;;;;;;3.60;1.55;;;;;;;;;;5115513;28;20056;-63
2021/09/29 14:48:17;;;;;;;3.17;1.00;;;;;;;;;;5119213;28;20044;-65
2021/09/29 14:51:08;;;;;;;3.67;0.90;;;;;;;;;;5119645;28;20044;-65
2021/09/29 14:53:56;;;;;;;2.92;0.70;;;;;;;;;;5123717;28;20525;-64
2021/09/29 14:56:41;;;;;;;4.70;1.17;;;;;;;;;;5127034;28;20060;-65
2021/09/29 14:59:26;;;;;;;4.55;0.98;;;;;;;;;;5119469;28;20052;-62
2021/09/29 15:02:13;;;;;;;1.23;0.40;;;;;;;;;;5115030;28;20055;-62
2021/09/29 15:04:59;;;;;;;2.60;0.50;;;;;;;;;;5115086;28;20456;-62
2021/09/29 15:07:44;;;;;;;3.05;0.60;;;;;;;;;;5115258;28;20052;-63
2021/09/29 15:10:30;;;;;;;5.97;0.80;;;;;;;;;;5115046;28;20048;-63
2021/09/29 15:13:17;;;;;;;1.33;0.50;;;;;;;;;;5115099;28;20044;-62
2021/09/29 15:16:09;;;;;;;15.50;1.98;;;;;;;;;;5114491;28;20636;-62
2021/09/29 15:25:14;;;;;;;2.10;0.45;;;;;;;;;;5117019;28;20051;-63
2021/09/29 15:51:54;;;;;;;2.88;0.40;;;;;;;;;;5108039;28;20043;-64
2021/09/29 15:54:51;;;;;;;3.28;0.45;;;;;;;;;;5106847;28;20123;-62
2021/09/29 16:03:47;;;;;;;4.53;0.75;;;;;;;;;;5096913;28;20036;-64
2021/09/29 16:18:44;;;;;;;8.45;1.20;;;;;;;;;;5079799;28;20088;-63
2021/09/29 16:30:43;;;;;;;7.13;1.10;;;;;;;;;;5093228;28;20052;-62
2021/09/29 16:33:47;;;;;;;4.10;1.10;;;;;;;;;;5092805;28;20052;-62
2021/09/29 16:36:32;;;;;;;7.68;1.38;;;;;;;;;;5092933;28;20044;-62
2021/09/29 16:39:18;;;;;;;5.32;1.58;;;;;;;;;;5093138;28;20048;-62
2021/09/29 16:42:03;;;;;;;4.20;0.80;;;;;;;;;;5092761;28;20453;-62
2021/09/29 16:44:48;;;;;;;6.30;1.42;;;;;;;;;;5092680;28;20052;-62
2021/09/29 16:47:34;;;;;;;5.00;1.20;;;;;;;;;;5092958;28;20044;-60
2021/09/29 16:50:22;;;;;;;6.25;1.30;;;;;;;;;;5092690;28;20122;-61
2021/09/29 16:53:10;;;;;;;3.88;0.82;;;;;;;;;;5092977;28;20095;-60
2021/09/29 16:55:57;;;;;;;3.85;0.80;;;;;;;;;;5092800;28;20060;-62
2021/09/29 16:58:49;;;;;;;4.57;0.65;;;;;;;;;;5092689;28;20052;-62
2021/09/29 17:01:34;;;;;;;4.25;1.10;;;;;;;;;;5092663;28;20048;-61
2021/09/29 17:04:23;;;;;;;5.43;0.70;;;;;;;;;;5092259;28;20044;-62
2021/09/29 17:07:08;;;;;;;5.53;1.25;;;;;;;;;;5098450;28;20456;-61
2021/09/29 17:09:53;;;;;;;9.15;1.08;;;;;;;;;;5092317;28;20044;-62
2021/09/29 17:12:39;;;;;;;5.50;0.77;;;;;;;;;;5092559;28;20052;-62
2021/09/29 17:15:24;;;;;;;2.17;0.75;;;;;;;;;;5092203;28;20048;-62
2021/09/29 17:18:10;;;;;;;6.90;1.20;;;;;;;;;;5092708;28;20490;-62
2021/09/29 17:20:55;;;;;;;3.13;0.75;;;;;;;;;;5110416;28;20051;-61
2021/09/29 17:23:40;;;;;;;5.28;0.98;;;;;;;;;;5111748;28;20493;-63
2021/09/29 17:26:25;;;;;;;5.72;0.75;;;;;;;;;;5113772;28;20056;-63
2021/09/29 17:29:11;;;;;;;3.72;0.68;;;;;;;;;;5113102;28;20053;-64
2021/09/29 17:32:06;;;;;;;4.22;0.40;;;;;;;;;;5094456;28;20060;-64
2021/09/29 17:35:04;;;;;;;6.65;1.38;;;;;;;;;;5092738;28;20119;-64
2021/09/29 17:38:07;;;;;;;2.42;0.47;;;;;;;;;;5092869;28;20119;-63
2021/09/29 17:53:09;;;;;;;1.35;0.20;;;;;;;;;;5090525;28;20052;-62
2021/09/29 17:55:55;;;;;;;3.88;0.60;;;;;;;;;;5090347;28;20052;-62
2021/09/29 17:58:40;;;;;;;3.42;0.60;;;;;;;;;;5089848;28;20044;-62
2021/09/29 18:01:27;;;;;;;3.58;0.70;;;;;;;;;;5104871;28;20530;-62
2021/09/29 18:04:13;;;;;;;1.73;0.43;;;;;;;;;;5109531;28;20044;-61
2021/09/29 18:09:52;;;;;;;2.80;0.43;;;;;;;;;;5110008;28;20417;-62
2021/09/29 18:12:38;;;;;;;2.88;0.40;;;;;;;;;;5109462;28;20501;-62
2021/09/29 18:15:23;;;;;;;3.42;0.57;;;;;;;;;;5107584;28;20047;-62
2021/09/29 18:18:08;;;;;;;3.58;0.68;;;;;;;;;;5110014;28;20044;-62
2021/09/29 18:20:53;;;;;;;4.53;0.60;;;;;;;;;;5110255;28;20052;-62
2021/09/29 18:23:39;;;;;;;3.08;0.80;;;;;;;;;;5109371;28;20047;-62
2021/09/29 18:26:24;;;;;;;2.15;0.50;;;;;;;;;;5113394;28;20425;-62
2021/09/29 18:29:11;;;;;;;3.67;0.75;;;;;;;;;;5114275;28;20066;-62
2021/09/29 18:31:56;;;;;;;3.40;0.45;;;;;;;;;;5093193;28;20060;-62
2021/09/29 18:34:42;;;;;;;2.65;0.80;;;;;;;;;;5093132;28;20410;-62
2021/09/29 18:37:27;;;;;;;3.95;0.55;;;;;;;;;;5092282;28;20506;-62
2021/09/29 18:40:16;;;;;;;3.35;0.60;;;;;;;;;;5092818;28;20122;-61
2021/09/29 18:43:01;;;;;;;5.18;0.80;;;;;;;;;;5093210;28;20052;-62
2021/09/29 18:45:46;;;;;;;2.42;0.65;;;;;;;;;;5085989;28;20297;-62
2021/09/29 18:48:32;;;;;;;3.03;0.70;;;;;;;;;;5108098;28;20505;-63
2021/09/29 18:51:17;;;;;;;4.90;1.00;;;;;;;;;;5106613;28;20048;-62
2021/09/29 18:54:08;;;;;;;3.08;1.00;;;;;;;;;;5102536;28;20486;-62
2021/09/29 19:08:52;;;;;;;4.40;1.17;;;;;;;;;;5092548;28;20048;-62
2021/09/29 19:11:37;;;;;;;4.05;0.73;;;;;;;;;;5092396;28;20055;-62
2021/09/29 19:14:22;;;;;;;6.60;1.42;;;;;;;;;;5091412;28;20056;-62
2021/09/29 19:17:07;;;;;;;6.78;1.65;;;;;;;;;;5092735;28;20048;-62
2021/09/29 19:19:53;;;;;;;4.45;0.95;;;;;;;;;;5092185;28;20514;-62
2021/09/29 19:22:38;;;;;;;4.45;0.80;;;;;;;;;;5092600;28;20413;-62
2021/09/29 19:25:25;;;;;;;8.48;1.45;;;;;;;;;;5091598;28;20048;-62
2021/09/29 19:31:28;;;;;;;5.53;1.20;;;;;;;;;;5077508;28;20367;-65
2021/09/29 19:34:13;;;;;;;4.25;1.00;;;;;;;;;;5096581;28;20494;-62
2021/09/29 19:36:58;;;;;;;6.28;0.90;;;;;;;;;;5097428;28;20052;-64
2021/09/29 19:39:44;;;;;;;9.63;1.10;;;;;;;;;;5100310;28;20413;-65
2021/09/29 19:42:29;;;;;;;6.70;1.13;;;;;;;;;;5095166;28;20505;-64
2021/09/29 19:45:15;;;;;;;8.27;1.48;;;;;;;;;;5090472;28;20406;-62
2021/09/29 19:48:13;;;;;;;5.15;1.30;;;;;;;;;;5094158;28;20048;-64
2021/09/29 20:08:48;;;;;;;6.03;1.33;;;;;;;;;;5084615;28;20048;-61
2021/09/29 20:11:34;;;;;;;5.82;0.90;;;;;;;;;;5108437;28;20053;-61
2021/09/29 20:14:19;;;;;;;5.38;1.80;;;;;;;;;;5112238;28;20047;-64
2021/09/29 20:17:04;;;;;;;6.05;1.23;;;;;;;;;;5095834;28;20079;-65
2021/09/29 20:19:50;;;;;;;5.07;1.30;;;;;;;;;;5114812;28;20126;-65
2021/09/29 20:22:35;;;;;;;5.10;1.38;;;;;;;;;;5114209;28;20044;-66
2021/09/29 20:25:21;;;;;;;6.63;1.40;;;;;;;;;;5113572;28;20442;-65
2021/09/29 20:28:07;;;;;;;7.70;1.40;;;;;;;;;;5096224;28;20055;-65
2021/09/29 20:30:53;;;;;;;6.05;1.88;;;;;;;;;;5106093;28;20048;-65
2021/09/29 20:42:15;;;;;;;7.65;1.30;;;;;;;;;;5088218;28;20048;-62
2021/09/29 20:45:41;;;;;;;8.73;2.00;;;;;;;;;;5093662;28;20510;-65
2021/09/29 20:48:27;;;;;;;8.00;1.50;;;;;;;;;;5097873;28;20048;-65
2021/09/29 20:51:12;;;;;;;14.40;1.85;;;;;;;;;;5096815;28;20272;-63
2021/09/29 20:53:59;;;;;;;12.57;1.58;;;;;;;;;;5093260;28;20518;-64
2021/09/29 20:56:44;;;;;;;12.85;1.70;;;;;;;;;;5098268;28;20084;-64
2021/09/29 20:59:29;;;;;;;8.00;1.35;;;;;;;;;;5094475;28;20126;-64
2021/09/29 21:02:15;;;;;;;8.98;1.65;;;;;;;;;;5094812;28;20073;-64
2021/09/29 21:05:00;;;;;;;8.85;1.42;;;;;;;;;;5076894;28;20063;-65
2021/09/29 21:07:48;;;;;;;6.85;1.40;;;;;;;;;;5100549;28;20381;-64
2021/09/29 21:10:37;;;;;;;8.70;1.52;;;;;;;;;;5116610;28;20056;-64
2021/09/29 21:13:29;;;;;;;13.07;2.10;;;;;;;;;;5115003;28;20051;-64
2021/09/29 21:18:59;;;;;;;6.80;1.48;;;;;;;;;;5111990;28;20413;-64
2021/09/29 21:21:46;;;;;;;10.00;1.65;;;;;;;;;;5111371;28;20056;-63
2021/09/29 21:24:34;;;;;;;6.00;1.35;;;;;;;;;;5111107;28;20044;-64